Terminal Aerodrome Forecast
Issued by NWS

Home | Current Version | Previous Version | Text Only | Print | Product List | Glossary On
Versions: 1 2 3 4 5 6 7 8 9 10 11 12 13 14 15 16
000
FTUS43 KAPX 260600 AAA
TAFPLN
TAF AMD
KPLN 260640Z 2607/2706 VRB03KT P6SM VCSH OVC029
     FM261400 23006KT P6SM VCSH OVC025
     FM261800 28008KT P6SM OVC030=

USA.gov is the U.S. government's official web portal to all federal, state and local government web resources and services.